Time;durP1;ratioP1;P1;durP2;ratioP2;P2;SDS_P1;SDS_P2;PMS_P1;PMS_P2;Temp;Humidity;BMP_temperature;BMP_pressure;BME280_temperature;BME280_humidity;BME280_pressure;Samples;Min_cycle;Max_cycle;Signal;HPM_P1;HPM_P2
2022/06/04 00:00:44;;;;;;;7.35;6.65;;;;;;;17.01;71.81;93954.13;5090808;28;20028;-52
2022/06/04 00:03:10;;;;;;;11.07;6.18;;;;;;;17.03;71.83;93955.03;5091055;28;20111;-52
2022/06/04 00:05:38;;;;;;;6.93;5.70;;;;;;;16.95;71.70;93948.81;5090799;28;20463;-53
2022/06/04 00:08:05;;;;;;;11.17;7.23;;;;;;;16.95;72.28;93946.03;5090802;28;20024;-56
2022/06/04 00:16:17;;;;;;;8.63;6.10;;;;;;;16.89;71.79;93947.59;5091034;28;20522;-58
2022/06/04 00:18:43;;;;;;;9.57;6.53;;;;;;;16.86;71.56;93943.91;5090907;28;20032;-58
2022/06/04 00:21:11;;;;;;;7.25;6.50;;;;;;;16.82;71.74;93943.59;5089284;28;20055;-58
2022/06/04 00:23:36;;;;;;;9.02;6.75;;;;;;;16.72;72.11;93942.78;5090749;28;20099;-58
2022/06/04 00:26:04;;;;;;;12.05;6.50;;;;;;;16.74;71.95;93929.00;5090529;28;20118;-58
2022/06/04 00:28:29;;;;;;;7.93;6.68;;;;;;;16.68;72.59;93931.31;5099309;28;20504;-58
2022/06/04 00:30:57;;;;;;;8.27;7.25;;;;;;;16.52;73.25;93927.97;5110721;28;20043;-58
2022/06/04 00:33:23;;;;;;;8.73;6.93;;;;;;;16.60;72.98;93925.13;5111035;28;20038;-58
2022/06/04 00:35:51;;;;;;;8.88;7.15;;;;;;;16.62;72.46;93930.84;5110720;28;20020;-58
2022/06/04 00:38:19;;;;;;;7.50;6.68;;;;;;;16.61;72.40;93929.38;5111027;28;20042;-58
2022/06/04 00:40:51;;;;;;;9.25;7.25;;;;;;;16.57;72.44;93927.00;5110890;28;20023;-58
2022/06/04 00:43:18;;;;;;;7.80;6.88;;;;;;;16.42;72.40;93906.91;5110954;28;20110;-57
2022/06/04 00:45:52;;;;;;;10.75;7.75;;;;;;;16.55;72.60;93914.94;5110385;28;20439;-57
2022/06/04 00:48:20;;;;;;;11.15;7.22;;;;;;;16.54;72.21;93922.59;5110885;28;20019;-57
2022/06/04 00:50:46;;;;;;;6.93;5.63;;;;;;;16.31;71.63;93908.16;5110598;28;20026;-57
2022/06/04 00:53:11;;;;;;;7.05;5.90;;;;;;;16.36;71.37;93914.78;5110530;28;20027;-57
2022/06/04 00:56:04;;;;;;;6.45;5.65;;;;;;;16.34;71.20;93912.59;5109604;28;20039;-49
2022/06/04 00:58:42;;;;;;;7.68;6.10;;;;;;;16.27;71.28;93913.41;5110786;28;20031;-51
2022/06/04 01:01:34;;;;;;;11.52;7.35;;;;;;;16.25;71.78;93904.16;5110731;28;20034;-49
2022/06/04 01:03:59;;;;;;;16.52;11.88;;;;;;;16.22;72.03;93911.59;5108842;28;20088;-49
2022/06/04 01:06:39;;;;;;;13.50;10.50;;;;;;;16.13;72.32;93912.28;5110698;28;20028;-49
2022/06/04 01:09:32;;;;;;;13.70;10.35;;;;;;;16.11;72.55;93908.59;5109283;28;20031;-48
2022/06/04 01:12:20;;;;;;;11.60;9.48;;;;;;;15.99;73.10;93891.63;5110365;28;20106;-50
2022/06/04 01:15:07;;;;;;;11.30;9.82;;;;;;;16.04;73.60;93907.38;5110739;28;20024;-50
2022/06/04 01:17:54;;;;;;;10.57;8.85;;;;;;;16.04;73.69;93899.00;5109424;28;20023;-56
2022/06/04 01:20:25;;;;;;;9.32;8.13;;;;;;;16.02;74.14;93895.31;5110258;28;20080;-56
2022/06/04 01:23:19;;;;;;;11.90;8.15;;;;;;;16.01;73.75;93897.34;5110181;28;20028;-53
2022/06/04 01:25:56;;;;;;;8.32;7.50;;;;;;;15.98;73.56;93892.22;5110567;28;20036;-49
2022/06/04 01:28:22;;;;;;;8.15;6.80;;;;;;;15.94;73.06;93898.16;5109049;28;20032;-47
2022/06/04 01:30:51;;;;;;;13.82;7.15;;;;;;;15.94;73.07;93898.16;5108971;28;20067;-49
2022/06/04 01:33:24;;;;;;;7.50;6.78;;;;;;;15.57;73.84;93886.09;5110280;28;20024;-47
2022/06/04 01:36:38;;;;;;;8.80;7.47;;;;;;;15.61;73.57;93894.81;5109001;28;20024;-48
2022/06/04 01:39:14;;;;;;;12.35;10.25;;;;;;;15.62;74.45;93901.09;5110533;28;20035;-47
2022/06/04 01:41:44;;;;;;;12.65;10.98;;;;;;;15.72;74.72;93890.81;5108871;28;20023;-47
2022/06/04 01:44:45;;;;;;;13.88;10.00;;;;;;;15.84;73.84;93884.19;5109187;28;20027;-48
2022/06/04 01:47:10;;;;;;;14.05;9.93;;;;;;;15.82;73.54;93869.34;5050443;28;20029;-49
2022/06/04 01:49:45;;;;;;;11.57;10.27;;;;;;;15.85;73.74;93876.56;5100450;28;20436;-48
2022/06/04 01:52:27;;;;;;;13.35;9.35;;;;;;;15.76;72.63;93875.19;5109215;28;20019;-50
2022/06/04 01:55:10;;;;;;;10.13;7.80;;;;;;;15.75;72.48;93875.72;5109054;28;20024;-48
2022/06/04 01:57:40;;;;;;;12.30;8.32;;;;;;;15.73;72.47;93878.34;5111171;28;20019;-48
2022/06/04 02:00:15;;;;;;;11.15;9.20;;;;;;;15.68;72.54;93884.91;5113571;28;20031;-48
2022/06/04 02:02:46;;;;;;;13.18;8.27;;;;;;;15.54;72.76;93880.97;5112242;28;20019;-49
2022/06/04 02:05:19;;;;;;;9.23;7.82;;;;;;;15.56;72.82;93897.81;5112375;28;20030;-48
2022/06/04 02:07:48;;;;;;;9.93;7.75;;;;;;;15.44;72.55;93889.19;5113551;28;20069;-48
2022/06/04 02:10:24;;;;;;;10.07;7.38;;;;;;;15.44;72.24;93894.75;5113453;27;20024;-47
2022/06/04 02:12:53;;;;;;;9.10;6.75;;;;;;;15.35;72.69;93894.66;5113690;28;20020;-47
2022/06/04 02:15:22;;;;;;;8.48;6.93;;;;;;;15.34;72.87;93895.94;5113630;28;20034;-48
2022/06/04 02:17:49;;;;;;;;;;;;;;;15.38;72.57;93890.72;5112954;28;20090;-48
2022/06/04 02:20:14;;;;;;;11.88;6.72;;;;;;;15.33;72.97;93894.47;5112347;28;19938;-47
2022/06/04 02:22:40;;;;;;;8.02;6.35;;;;;;;15.14;73.14;93895.00;5113427;28;20020;-47
2022/06/04 02:25:09;;;;;;;7.10;6.40;;;;;;;15.10;73.14;93903.00;5113460;28;20024;-49
2022/06/04 02:27:35;;;;;;;11.52;6.93;;;;;;;15.16;72.59;93901.47;5111474;28;20408;-54
2022/06/04 02:30:01;;;;;;;8.48;6.68;;;;;;;15.20;73.05;93909.44;5111800;28;20036;-53
2022/06/04 02:32:37;;;;;;;11.95;7.22;;;;;;;15.09;72.73;93891.13;5112106;28;20027;-51
2022/06/04 02:35:10;;;;;;;8.55;7.32;;;;;;;15.26;72.65;93920.31;5112016;28;20027;-50
2022/06/04 02:37:39;;;;;;;21.58;9.07;;;;;;;15.22;72.81;93920.72;5111714;28;20061;-49
2022/06/04 02:40:19;;;;;;;8.80;7.90;;;;;;;15.19;72.91;93917.03;5112877;28;20522;-49
2022/06/04 02:43:12;;;;;;;9.23;7.78;;;;;;;15.14;72.81;93923.53;5111469;28;20037;-58
2022/06/04 02:45:44;;;;;;;9.15;8.23;;;;;;;15.09;72.38;93932.84;5113095;28;20050;-58
2022/06/04 02:48:16;;;;;;;8.27;7.47;;;;;;;15.04;72.98;93931.03;5111715;28;20024;-60
2022/06/04 02:50:47;;;;;;;8.43;7.53;;;;;;;14.98;72.57;93936.09;5112537;28;20024;-61
2022/06/04 02:53:13;;;;;;;9.73;7.65;;;;;;;14.92;72.93;93938.34;5112592;28;20039;-61
2022/06/04 02:55:48;;;;;;;8.82;7.32;;;;;;;14.89;73.27;93931.13;5112523;28;20019;-61
2022/06/04 02:58:15;;;;;;;14.77;7.28;;;;;;;14.70;73.45;93905.13;5112512;28;20060;-61
2022/06/04 03:00:42;;;;;;;9.75;7.85;;;;;;;14.85;73.65;93925.25;5111459;28;20020;-61
2022/06/04 03:03:12;;;;;;;9.15;7.47;;;;;;;14.79;74.04;93935.81;5111115;28;20723;-60
2022/06/04 03:05:39;;;;;;;9.68;8.32;;;;;;;14.84;73.88;93932.09;5112307;28;20802;-60
2022/06/04 03:08:05;;;;;;;10.65;8.63;;;;;;;14.82;73.50;93934.69;5112075;28;20047;-60
2022/06/04 03:10:33;;;;;;;8.98;8.07;;;;;;;14.80;73.44;93928.97;5111012;28;20080;-60
2022/06/04 03:12:58;;;;;;;9.80;8.80;;;;;;;14.86;72.97;93937.81;5112482;28;20128;-49
2022/06/04 03:15:24;;;;;;;16.65;9.75;;;;;;;14.93;73.22;93934.25;5112381;27;20020;-50
2022/06/04 03:17:51;;;;;;;23.90;10.27;;;;;;;14.83;73.63;93908.38;5112393;28;20020;-51
2022/06/04 03:20:23;;;;;;;13.75;10.63;;;;;;;14.92;74.55;93926.50;5112074;28;20021;-47
2022/06/04 03:22:50;;;;;;;18.92;10.82;;;;;;;15.01;73.93;93929.38;5112557;28;20039;-46
2022/06/04 03:25:16;;;;;;;17.00;10.55;;;;;;;15.07;73.77;93929.19;5111934;28;20027;-49
2022/06/04 03:27:41;;;;;;;21.23;11.20;;;;;;;15.03;74.30;93937.16;5111554;28;20024;-47
2022/06/04 03:30:07;;;;;;;12.32;10.13;;;;;;;15.04;73.97;93933.81;5111722;28;20051;-46
2022/06/04 03:32:33;;;;;;;14.00;10.52;;;;;;;15.03;73.86;93934.38;5110855;28;20069;-47
2022/06/04 03:34:59;;;;;;;14.35;11.95;;;;;;;15.03;74.10;93928.81;5109771;28;20027;-47
2022/06/04 03:37:24;;;;;;;21.35;12.15;;;;;;;14.91;74.22;93925.75;5111591;28;20020;-48
2022/06/04 03:39:50;;;;;;;19.02;10.38;;;;;;;14.94;74.69;93918.31;5111670;28;20028;-49
2022/06/04 03:42:15;;;;;;;13.55;11.80;;;;;;;15.04;74.42;93911.56;5111507;28;20012;-49
2022/06/04 03:44:46;;;;;;;13.35;11.48;;;;;;;15.14;73.98;93909.63;5111486;28;20027;-47
2022/06/04 03:47:12;;;;;;;11.40;10.10;;;;;;;15.15;74.18;93913.91;5111539;28;20055;-48
2022/06/04 03:49:37;;;;;;;13.75;10.68;;;;;;;15.11;74.46;93908.00;5111802;28;20070;-48
2022/06/04 03:52:03;;;;;;;13.80;11.57;;;;;;;15.14;75.17;93903.31;5111722;28;20024;-47
2022/06/04 03:59:56;;;;;;;11.85;10.65;;;;;;;15.25;74.42;93905.66;5111694;28;20514;-46
2022/06/04 04:02:22;;;;;;;11.63;10.43;;;;;;;15.37;73.96;93905.94;5111350;28;20044;-46
2022/06/04 04:04:47;;;;;;;10.38;9.38;;;;;;;15.41;73.42;93906.28;5105801;27;20564;-54
2022/06/04 04:07:14;;;;;;;11.25;9.85;;;;;;;15.49;73.81;93899.38;5090739;28;20499;-51
2022/06/04 04:09:40;;;;;;;11.15;9.50;;;;;;;15.38;75.16;93899.81;5090757;28;20028;-55
2022/06/04 04:12:06;;;;;;;12.95;10.40;;;;;;;15.43;75.54;93895.31;5091029;28;20462;-54
2022/06/04 04:14:31;;;;;;;9.85;8.85;;;;;;;15.57;75.09;93890.97;5090614;28;20030;-54
2022/06/04 04:16:57;;;;;;;14.73;11.50;;;;;;;15.59;75.34;93885.56;5090760;28;20029;-55
2022/06/04 04:19:26;;;;;;;14.00;10.10;;;;;;;15.75;75.62;93882.03;5089798;28;20099;-50
2022/06/04 04:21:52;;;;;;;14.30;10.45;;;;;;;15.79;75.05;93889.97;5090543;28;20606;-45
2022/06/04 04:24:17;;;;;;;16.77;10.05;;;;;;;15.72;75.18;93860.91;5090549;28;20115;-46
2022/06/04 04:26:43;;;;;;;10.93;9.30;;;;;;;15.98;75.33;93887.38;5090434;28;20058;-50
2022/06/04 04:29:09;;;;;;;17.83;9.02;;;;;;;16.14;75.52;93885.88;5104759;28;20020;-50
2022/06/04 04:31:35;;;;;;;8.82;7.90;;;;;;;16.17;76.14;93893.09;5111062;28;20015;-48
2022/06/04 04:34:01;;;;;;;9.52;8.43;;;;;;;16.24;76.23;93895.03;5109555;28;20062;-48
2022/06/04 04:36:30;;;;;;;12.90;9.48;;;;;;;16.32;76.02;93898.50;5110740;28;20027;-46
2022/06/04 04:38:56;;;;;;;15.23;12.00;;;;;;;16.37;75.92;93903.06;5110723;28;20027;-46
2022/06/04 04:41:21;;;;;;;18.95;13.68;;;;;;;16.53;76.23;93907.16;5110916;28;20020;-46
2022/06/04 04:43:49;;;;;;;25.40;13.80;;;;;;;16.83;75.44;93908.09;5111000;28;20537;-47
2022/06/04 04:46:16;;;;;;;23.00;13.95;;;;;;;16.98;75.38;93914.16;5109407;28;20508;-46
2022/06/04 04:48:42;;;;;;;19.50;12.93;;;;;;;16.98;75.91;93919.03;5110616;28;20024;-47
2022/06/04 04:51:23;;;;;;;12.63;10.30;;;;;;;16.95;77.20;93914.59;5110592;28;20023;-49
2022/06/04 04:53:49;;;;;;;45.42;13.07;;;;;;;17.01;78.13;93910.22;5110636;28;20118;-48
2022/06/04 04:56:16;;;;;;;16.88;9.90;;;;;;;17.13;78.18;93922.31;5110816;28;20027;-48
2022/06/04 04:58:42;;;;;;;9.73;8.68;;;;;;;17.22;78.14;93927.22;5110471;28;20019;-48
2022/06/04 05:01:19;;;;;;;10.15;9.05;;;;;;;17.28;78.18;93933.25;5110511;28;20085;-47
2022/06/04 05:03:44;;;;;;;9.55;8.65;;;;;;;17.43;78.37;93927.44;5110739;28;20107;-48
2022/06/04 05:06:12;;;;;;;10.95;9.95;;;;;;;17.52;78.56;93939.25;5110419;28;20107;-47
2022/06/04 05:08:38;;;;;;;12.18;9.85;;;;;;;17.66;78.04;93943.13;5110712;28;20657;-49
2022/06/04 05:11:08;;;;;;;14.30;9.32;;;;;;;17.79;77.67;93940.66;5110406;28;20497;-49
2022/06/04 05:13:34;;;;;;;14.23;9.57;;;;;;;17.97;77.54;93938.50;5109314;28;20016;-49
2022/06/04 05:16:00;;;;;;;14.38;10.00;;;;;;;18.10;77.63;93935.28;5110705;28;20485;-51
2022/06/04 05:18:25;;;;;;;11.05;9.85;;;;;;;18.28;76.87;93944.28;5110313;28;20020;-50
2022/06/04 05:20:51;;;;;;;15.90;10.95;;;;;;;18.53;76.62;93936.34;5110630;28;20023;-49
2022/06/04 05:23:16;;;;;;;19.88;11.13;;;;;;;18.67;76.55;93940.13;5110631;28;20024;-49
2022/06/04 05:25:42;;;;;;;20.25;11.80;;;;;;;18.88;75.21;93941.00;5110204;28;20108;-49
2022/06/04 05:28:07;;;;;;;18.55;10.05;;;;;;;18.91;75.01;93930.69;5109877;28;20048;-50
2022/06/04 05:30:33;;;;;;;8.88;7.95;;;;;;;19.17;73.23;93946.53;5110364;28;20044;-50
2022/06/04 05:32:58;;;;;;;14.48;9.10;;;;;;;19.31;72.69;93947.53;5114447;28;20029;-44
2022/06/04 05:35:24;;;;;;;8.50;7.55;;;;;;;19.52;71.58;93942.03;5114373;28;20461;-43
2022/06/04 05:37:49;;;;;;;12.02;8.00;;;;;;;19.73;71.85;93955.34;5114401;28;20539;-43
2022/06/04 05:40:15;;;;;;;12.23;7.25;;;;;;;19.94;72.27;93951.84;5114359;28;20020;-43
2022/06/04 05:42:41;;;;;;;11.40;7.22;;;;;;;20.09;71.44;93952.19;5113828;28;20073;-42
2022/06/04 05:45:07;;;;;;;11.73;6.85;;;;;;;20.26;70.53;93951.22;5114256;28;20427;-43
2022/06/04 05:47:33;;;;;;;22.27;8.55;;;;;;;20.49;70.09;93956.25;5105505;28;20401;-45
2022/06/04 05:49:58;;;;;;;10.45;8.27;;;;;;;20.67;68.86;93965.81;5103953;28;20016;-43
2022/06/04 05:52:24;;;;;;;13.43;8.88;;;;;;;20.79;67.99;93966.63;5113718;28;20066;-44
2022/06/04 05:54:50;;;;;;;17.95;8.23;;;;;;;20.87;68.59;93969.94;5113730;28;20031;-43
2022/06/04 05:57:15;;;;;;;10.05;8.60;;;;;;;21.01;69.85;93957.53;5113636;28;20031;-45
2022/06/04 05:59:41;;;;;;;9.70;8.70;;;;;;;21.10;68.56;93958.81;5113613;28;20115;-45
2022/06/04 06:02:06;;;;;;;9.77;8.68;;;;;;;21.22;68.65;93956.03;5113531;28;20020;-45
2022/06/04 06:04:32;;;;;;;35.17;10.07;;;;;;;21.36;68.20;93959.72;5112019;28;20023;-44
2022/06/04 06:06:59;;;;;;;44.53;10.05;;;;;;;21.38;67.65;93945.78;5112951;28;20022;-44
2022/06/04 06:09:25;;;;;;;11.02;7.07;;;;;;;21.56;68.75;93958.16;5112240;27;20027;-43
2022/06/04 06:11:52;;;;;;;13.40;7.78;;;;;;;21.63;67.99;93962.81;5113326;28;20031;-44
2022/06/04 06:14:18;;;;;;;8.40;7.57;;;;;;;21.71;67.89;93957.69;5112630;28;20028;-43
2022/06/04 06:16:46;;;;;;;8.38;7.43;;;;;;;21.75;67.78;93964.28;5112127;28;20028;-45
2022/06/04 06:19:14;;;;;;;14.95;8.32;;;;;;;21.81;67.90;93967.47;5113461;28;20016;-44
2022/06/04 06:21:39;;;;;;;10.48;7.78;;;;;;;21.85;65.70;93961.41;5112308;28;20035;-45
2022/06/04 06:24:08;;;;;;;10.93;6.88;;;;;;;21.92;64.49;93971.63;5111528;28;20023;-44
2022/06/04 06:26:40;;;;;;;7.97;7.27;;;;;;;22.01;64.38;93962.34;5111552;28;20027;-45
2022/06/04 06:29:05;;;;;;;12.50;7.03;;;;;;;22.09;64.08;93951.56;5110609;28;20466;-46
2022/06/04 06:31:32;;;;;;;10.32;7.10;;;;;;;22.17;62.55;93954.88;5111352;28;20051;-44
2022/06/04 06:33:57;;;;;;;9.20;6.82;;;;;;;22.32;63.41;93956.44;5111690;27;20073;-44
2022/06/04 06:36:23;;;;;;;25.73;7.57;;;;;;;22.58;62.01;93944.63;5111832;28;20024;-45
2022/06/04 06:38:49;;;;;;;7.25;6.55;;;;;;;22.92;61.16;93945.13;5113183;27;20442;-43
2022/06/04 06:41:17;;;;;;;9.85;6.72;;;;;;;23.24;60.76;93932.84;5112856;28;20023;-43
2022/06/04 06:43:46;;;;;;;7.60;5.63;;;;;;;23.66;59.54;93931.63;5111941;28;20553;-44
2022/06/04 06:46:21;;;;;;;6.88;6.18;;;;;;;23.91;58.70;93928.72;5113045;28;20038;-45
2022/06/04 06:48:49;;;;;;;7.07;5.78;;;;;;;24.06;58.24;93925.31;5113043;28;20027;-44
2022/06/04 06:51:23;;;;;;;6.45;5.47;;;;;;;24.04;57.36;93919.50;5112989;28;20035;-44
2022/06/04 06:53:48;;;;;;;7.60;5.22;;;;;;;23.98;57.97;93917.13;5112996;28;20136;-44
2022/06/04 06:56:19;;;;;;;8.52;5.95;;;;;;;24.03;57.47;93918.81;5112538;28;20481;-44
2022/06/04 06:58:46;;;;;;;8.25;5.15;;;;;;;24.08;56.19;93922.59;5112856;28;20031;-43
2022/06/04 07:01:12;;;;;;;10.82;5.72;;;;;;;24.08;56.90;93919.78;5112362;28;20105;-45
2022/06/04 07:03:38;;;;;;;6.75;5.50;;;;;;;24.32;56.59;93918.16;5112353;28;20045;-45
2022/06/04 07:06:07;;;;;;;7.60;5.00;;;;;;;24.56;54.91;93913.03;5112269;28;20030;-45
2022/06/04 07:08:33;;;;;;;6.93;5.18;;;;;;;24.83;54.70;93907.31;5112577;28;20148;-45
2022/06/04 07:10:59;;;;;;;7.97;5.13;;;;;;;25.28;52.45;93905.25;5112659;28;20096;-46
2022/06/04 07:13:24;;;;;;;6.88;4.97;;;;;;;25.89;51.70;93905.19;5112109;28;20028;-46
2022/06/04 07:15:50;;;;;;;9.30;5.30;;;;;;;26.60;50.29;93909.72;5112540;27;20103;-44
2022/06/04 07:18:16;;;;;;;7.63;4.18;;;;;;;27.34;47.73;93899.97;5112378;27;20484;-45
2022/06/04 07:20:42;;;;;;;5.55;4.78;;;;;;;27.94;45.13;93896.59;5112352;28;20024;-45
2022/06/04 07:23:09;;;;;;;6.47;4.50;;;;;;;28.50;43.05;93898.63;5112257;28;20032;-45
2022/06/04 07:25:35;;;;;;;5.15;3.60;;;;;;;29.65;40.46;93898.84;5111942;28;20515;-46
2022/06/04 07:28:00;;;;;;;6.53;4.07;;;;;;;30.67;38.41;93898.94;5111599;28;20057;-46
2022/06/04 07:30:26;;;;;;;10.70;3.85;;;;;;;32.05;37.23;93905.81;5111749;28;20152;-46
2022/06/04 07:32:52;;;;;;;7.10;3.58;;;;;;;33.16;34.33;93887.94;5110649;28;20568;-46
2022/06/04 07:35:18;;;;;;;3.85;2.90;;;;;;;33.95;32.14;93890.59;5111750;28;20028;-45
2022/06/04 07:37:43;;;;;;;7.18;3.20;;;;;;;34.18;31.55;93891.59;5111982;28;20030;-46
2022/06/04 07:40:10;;;;;;;5.53;3.67;;;;;;;34.43;31.35;93887.63;5111752;28;20479;-45
2022/06/04 07:42:36;;;;;;;7.60;3.55;;;;;;;35.21;30.21;93890.59;5111508;28;20076;-46
2022/06/04 07:45:02;;;;;;;4.43;3.20;;;;;;;35.90;29.65;93888.97;5111501;28;20023;-46
2022/06/04 07:47:27;;;;;;;3.55;2.85;;;;;;;36.21;27.85;93890.56;5111569;28;20051;-47
2022/06/04 07:49:56;;;;;;;5.00;3.30;;;;;;;36.66;28.35;93887.91;5111524;28;20039;-45
2022/06/04 07:52:22;;;;;;;27.70;4.43;;;;;;;37.31;27.51;93874.34;5111357;28;20483;-48
2022/06/04 07:54:48;;;;;;;3.83;2.80;;;;;;;37.95;25.71;93883.69;5110147;28;20084;-45
2022/06/04 07:57:13;;;;;;;6.43;2.72;;;;;;;38.37;25.46;93879.97;5090924;28;20481;-45
2022/06/04 07:59:39;;;;;;;3.50;2.55;;;;;;;38.56;24.15;93871.97;5093492;28;20026;-47
2022/06/04 08:02:05;;;;;;;5.20;2.55;;;;;;;38.87;23.70;93872.53;5111416;28;20026;-48
2022/06/04 08:04:30;;;;;;;85.95;7.82;;;;;;;38.81;24.11;93872.59;5111233;28;20505;-50
2022/06/04 08:06:56;;;;;;;4.97;2.25;;;;;;;38.48;24.16;93866.22;5111419;28;20031;-48
2022/06/04 08:09:22;;;;;;;6.00;2.70;;;;;;;37.56;24.31;93878.69;5111164;28;20558;-46
2022/06/04 08:11:47;;;;;;;5.07;2.42;;;;;;;37.84;25.01;93875.78;5092939;28;20032;-46
2022/06/04 08:14:21;;;;;;;5.20;2.35;;;;;;;37.55;24.65;93880.84;5090728;28;20066;-47
2022/06/04 08:16:58;;;;;;;2.55;2.25;;;;;;;37.40;24.01;93882.31;5091069;28;20046;-45
2022/06/04 08:19:26;;;;;;;4.20;2.55;;;;;;;37.49;24.48;93883.03;5090607;28;20032;-48
2022/06/04 08:21:52;;;;;;;4.10;2.70;;;;;;;37.73;23.41;93885.84;5089329;28;20106;-47
2022/06/04 08:24:18;;;;;;;5.40;2.75;;;;;;;37.68;24.93;93879.41;5090500;28;20044;-48
2022/06/04 08:26:47;;;;;;;6.68;2.72;;;;;;;37.07;26.04;93883.69;5090315;28;20539;-46
2022/06/04 08:29:14;;;;;;;2.63;2.42;;;;;;;36.32;25.52;93877.69;5105325;28;20050;-48
2022/06/04 08:31:39;;;;;;;3.47;2.55;;;;;;;35.79;26.28;93879.56;5110781;28;20102;-47
2022/06/04 08:34:05;;;;;;;3.15;2.70;;;;;;;35.50;25.78;93880.81;5111051;28;20157;-47
2022/06/04 08:36:33;;;;;;;4.95;3.05;;;;;;;35.79;25.78;93875.97;5110749;28;20730;-47
2022/06/04 08:39:00;;;;;;;3.08;2.38;;;;;;;35.90;25.36;93882.50;5111102;28;20026;-47
2022/06/04 08:41:29;;;;;;;3.70;2.17;;;;;;;36.58;25.21;93876.38;5110872;28;20122;-48
2022/06/04 08:44:06;;;;;;;;;;;;;;;37.11;24.23;93867.16;5111500;28;20031;-47
2022/06/04 08:46:53;;;;;;;3.63;2.25;;;;;;;37.39;23.19;93872.22;5110604;28;19908;-48
2022/06/04 08:49:40;;;;;;;4.27;2.20;;;;;;;38.24;23.01;93867.03;5110887;28;20034;-48
2022/06/04 08:52:16;;;;;;;4.53;2.45;;;;;;;38.35;22.88;93865.56;5110404;28;20039;-47
2022/06/04 08:57:47;;;;;;;3.38;2.10;;;;;;;38.97;22.25;93858.75;5110000;28;20054;-45
2022/06/04 09:00:24;;;;;;;3.63;2.60;;;;;;;38.86;21.77;93856.66;5110504;28;20028;-45
2022/06/04 09:03:05;;;;;;;9.95;2.65;;;;;;;39.52;21.79;93847.53;5110465;28;20042;-48
2022/06/04 09:05:59;;;;;;;7.13;2.47;;;;;;;40.19;20.65;93841.09;5111251;28;20034;-47
2022/06/04 09:08:49;;;;;;;4.20;2.40;;;;;;;39.87;19.95;93837.06;5107243;28;20047;-45
2022/06/04 09:11:26;;;;;;;3.47;2.10;;;;;;;39.54;20.62;93838.09;5106466;28;20688;-45
2022/06/04 09:14:14;;;;;;;3.33;2.13;;;;;;;39.34;20.03;93839.72;5112943;28;20094;-47
2022/06/04 09:16:41;;;;;;;3.47;2.40;;;;;;;39.27;21.57;93829.66;5112817;28;20055;-45
2022/06/04 09:19:15;;;;;;;4.15;2.35;;;;;;;39.45;20.79;93825.91;5112170;28;20035;-47
2022/06/04 09:21:41;;;;;;;2.95;1.88;;;;;;;39.80;19.86;93815.47;5112089;28;20036;-48
2022/06/04 09:24:07;;;;;;;5.97;2.17;;;;;;;39.98;22.36;93823.97;5112902;28;20251;-48
2022/06/04 09:26:40;;;;;;;3.67;1.98;;;;;;;40.23;19.31;93826.56;5114291;28;20447;-47
2022/06/04 09:29:19;;;;;;;5.60;2.30;;;;;;;40.02;19.65;93829.72;5113718;28;20027;-47
2022/06/04 09:31:45;;;;;;;6.65;2.22;;;;;;;39.57;19.12;93831.59;5114192;28;20023;-47
2022/06/04 09:34:19;;;;;;;6.78;2.40;;;;;;;40.06;18.74;93823.88;5114511;28;20050;-47
2022/06/04 09:36:46;;;;;;;3.78;1.92;;;;;;;39.17;19.92;93820.38;5113253;28;20050;-46
2022/06/04 09:39:30;;;;;;;17.52;2.80;;;;;;;39.10;20.41;93813.16;5112924;28;20500;-45
2022/06/04 09:41:59;;;;;;;3.50;1.98;;;;;;;39.34;20.25;93804.31;5114283;28;20398;-44
2022/06/04 09:44:26;;;;;;;6.80;2.20;;;;;;;39.08;20.56;93813.19;5112720;28;20032;-45
2022/06/04 09:47:08;;;;;;;6.65;2.28;;;;;;;38.40;20.42;93805.69;5114014;28;20030;-46
2022/06/04 09:49:54;;;;;;;10.55;2.83;;;;;;;38.29;21.79;93807.19;5113894;28;20050;-46
2022/06/04 09:52:23;;;;;;;3.95;2.30;;;;;;;38.95;19.86;93808.97;5112695;28;20539;-46
2022/06/04 09:54:59;;;;;;;6.22;2.00;;;;;;;39.73;18.79;93808.31;5113757;28;20504;-44
2022/06/04 09:57:32;;;;;;;2.70;2.10;;;;;;;39.44;18.54;93815.78;5111407;28;20492;-46
2022/06/04 09:59:59;;;;;;;5.32;2.28;;;;;;;39.37;19.05;93805.75;5106649;28;20123;-46
2022/06/04 10:02:26;;;;;;;7.00;2.38;;;;;;;39.69;18.62;93808.34;5107399;28;20024;-48
2022/06/04 10:05:02;;;;;;;2.47;2.13;;;;;;;40.00;20.14;93814.56;5093496;28;20107;-47
2022/06/04 10:07:36;;;;;;;2.25;2.05;;;;;;;40.22;18.12;93805.59;5108112;28;20567;-45
2022/06/04 10:10:30;;;;;;;3.53;1.90;;;;;;;40.49;18.29;93794.44;5112663;28;20027;-45
2022/06/04 10:15:48;;;;;;;2.97;1.63;;;;;;;40.84;16.85;93801.19;5112452;28;20031;-46
2022/06/04 10:18:15;;;;;;;3.95;1.98;;;;;;;41.06;17.75;93803.75;5110924;28;20071;-45
2022/06/04 10:20:40;;;;;;;5.30;2.05;;;;;;;40.79;17.03;93788.94;5113585;28;20611;-44
2022/06/04 10:23:13;;;;;;;4.28;1.60;;;;;;;41.29;17.85;93792.53;5113143;28;20027;-46
2022/06/04 10:25:58;;;;;;;3.05;1.38;;;;;;;41.73;15.08;93791.78;5113480;27;20424;-46
2022/06/04 10:28:40;;;;;;;3.10;1.60;;;;;;;42.31;14.55;93781.22;5109846;28;20027;-46
2022/06/04 10:31:05;;;;;;;4.10;1.88;;;;;;;42.40;15.77;93782.47;5108756;28;20131;-46
2022/06/04 10:33:40;;;;;;;7.82;2.15;;;;;;;42.41;16.88;93786.78;5113011;28;20069;-46
2022/06/04 10:36:29;;;;;;;4.05;1.92;;;;;;;42.92;16.12;93777.72;5113221;28;20024;-47
2022/06/04 10:39:14;;;;;;;2.38;1.90;;;;;;;42.69;14.95;93788.41;5113179;28;20130;-45
2022/06/04 10:41:52;;;;;;;2.38;1.60;;;;;;;42.55;15.68;93769.09;5111806;28;20027;-45
2022/06/04 10:44:29;;;;;;;1.77;1.67;;;;;;;41.93;15.63;93776.16;5111623;28;20039;-45
2022/06/04 10:47:07;;;;;;;2.97;1.98;;;;;;;41.45;15.94;93781.38;5096686;28;20020;-46
2022/06/04 10:50:03;;;;;;;4.18;1.73;;;;;;;41.25;14.96;93769.41;5110453;28;20034;-44
2022/06/04 10:52:42;;;;;;;4.85;1.95;;;;;;;41.41;17.49;93758.25;5110645;28;20063;-45
2022/06/04 10:55:20;;;;;;;6.10;2.05;;;;;;;41.29;17.19;93778.75;5110957;28;20407;-45
2022/06/04 10:57:49;;;;;;;;;;;;;;;40.83;17.05;93758.50;5110922;28;20027;-47
2022/06/04 11:00:48;;;;;;;2.63;1.75;;;;;;;40.65;17.30;93760.16;5110392;28;19912;-45
2022/06/04 11:03:23;;;;;;;2.53;2.10;;;;;;;40.26;17.96;93755.66;5101933;28;20046;-46
2022/06/04 11:06:27;;;;;;;6.38;2.00;;;;;;;40.16;17.71;93747.09;5110303;28;20080;-46
2022/06/04 11:08:57;;;;;;;1.95;1.50;;;;;;;39.40;17.09;93747.19;5106451;28;20046;-45
2022/06/04 11:11:31;;;;;;;2.90;2.10;;;;;;;39.07;18.46;93736.69;5110313;27;20404;-46
2022/06/04 11:14:03;;;;;;;6.35;2.00;;;;;;;38.67;18.64;93740.56;5108948;28;20027;-44
2022/06/04 11:16:45;;;;;;;2.13;1.92;;;;;;;38.02;19.94;93737.34;5110370;28;20031;-45
2022/06/04 11:19:23;;;;;;;5.25;1.90;;;;;;;37.22;19.95;93715.97;5110387;28;20103;-45
2022/06/04 11:21:53;;;;;;;5.90;2.20;;;;;;;36.74;21.49;93730.38;5109989;28;20085;-45
2022/06/04 11:24:38;;;;;;;4.53;2.00;;;;;;;36.23;19.85;93732.47;5108573;28;20488;-44
2022/06/04 11:27:26;;;;;;;10.90;2.78;;;;;;;35.79;21.85;93735.91;5109552;28;20027;-45
2022/06/04 11:29:53;;;;;;;5.22;2.22;;;;;;;35.20;22.20;93731.25;5087501;28;20055;-44
2022/06/04 11:32:58;;;;;;;4.00;2.20;;;;;;;35.17;23.91;93737.72;5089042;28;20035;-44
2022/06/04 11:35:45;;;;;;;14.35;2.65;;;;;;;35.31;24.22;93732.03;5046092;28;20075;-45
2022/06/04 11:38:26;;;;;;;6.10;2.67;;;;;;;35.14;23.92;93733.38;5046293;28;20676;-45
2022/06/04 11:41:12;;;;;;;8.63;2.42;;;;;;;34.79;24.91;93733.09;5077037;28;20093;-46
2022/06/04 11:43:47;;;;;;;2.45;2.17;;;;;;;34.42;24.28;93722.72;5104152;28;20036;-46
2022/06/04 11:46:27;;;;;;;2.65;2.30;;;;;;;34.27;24.16;93732.63;5109736;28;20595;-44
2022/06/04 11:49:20;;;;;;;3.47;2.35;;;;;;;34.08;26.54;93733.88;5109605;28;20080;-45
2022/06/04 11:51:58;;;;;;;7.45;2.92;;;;;;;33.93;26.42;93730.13;5104061;28;20054;-46
2022/06/04 11:54:29;;;;;;;6.13;2.60;;;;;;;34.01;26.49;93729.50;5107874;28;20035;-44
2022/06/04 11:57:21;;;;;;;5.75;3.63;;;;;;;33.93;27.55;93730.13;5109137;28;20055;-45
2022/06/04 11:59:55;;;;;;;3.92;2.53;;;;;;;34.24;27.05;93736.91;5109218;28;20095;-45
2022/06/04 12:03:06;;;;;;;2.95;2.58;;;;;;;34.28;26.40;93731.22;5109159;28;20147;-47
2022/06/04 12:06:00;;;;;;;3.63;2.78;;;;;;;34.29;27.51;93727.63;5094611;28;20517;-44